Time;durP1;ratioP1;P1;durP2;ratioP2;P2;SDS_P1;SDS_P2;PMS_P1;PMS_P2;Temp;Humidity;BMP_temperature;BMP_pressure;BME280_temperature;BME280_humidity;BME280_pressure;Samples;Min_cycle;Max_cycle;Signal;HPM_P1;HPM_P2
2022/03/03 00:01:39;;;;;;;4.63;3.87;;;;;;;1.60;100.00;98464.73;1631268;87;21579;-70
2022/03/03 00:04:06;;;;;;;4.93;3.80;;;;;;;1.63;100.00;98466.25;1659015;86;21059;-71
2022/03/03 00:06:34;;;;;;;4.73;3.73;;;;;;;1.62;100.00;98461.42;1644245;87;21024;-70
2022/03/03 00:09:02;;;;;;;6.37;3.90;;;;;;;1.61;100.00;98455.77;1642856;87;21079;-70
2022/03/03 00:11:30;;;;;;;5.77;4.10;;;;;;;1.61;100.00;98454.91;1642761;87;21099;-70
2022/03/03 00:13:58;;;;;;;5.47;3.93;;;;;;;1.59;100.00;98455.06;1631043;87;21028;-71
2022/03/03 00:16:26;;;;;;;4.73;3.80;;;;;;;1.59;100.00;98452.90;1628905;87;21098;-71
2022/03/03 00:18:53;;;;;;;4.97;3.90;;;;;;;1.56;100.00;98445.20;1656688;85;21099;-69
2022/03/03 00:21:20;;;;;;;6.77;4.13;;;;;;;1.55;100.00;98440.88;1640489;85;21107;-70
2022/03/03 00:23:47;;;;;;;5.20;3.93;;;;;;;1.53;100.00;98439.70;1640265;86;21044;-71
2022/03/03 00:26:13;;;;;;;7.43;4.07;;;;;;;1.53;100.00;98434.88;1650357;85;21700;-70
2022/03/03 00:28:40;;;;;;;6.80;4.10;;;;;;;1.51;100.00;98427.03;1632679;85;21119;-71
2022/03/03 00:31:07;;;;;;;6.23;4.13;;;;;;;1.50;100.00;98420.02;1641465;85;21559;-70
2022/03/03 00:33:34;;;;;;;6.30;4.23;;;;;;;1.47;100.00;98415.84;1647168;85;21415;-71
2022/03/03 00:36:02;;;;;;;5.73;4.10;;;;;;;1.47;100.00;98405.19;1648327;85;21099;-70
2022/03/03 00:38:29;;;;;;;7.07;4.27;;;;;;;1.47;100.00;98405.66;1650415;85;21054;-70
2022/03/03 00:40:56;;;;;;;5.40;4.17;;;;;;;1.46;100.00;98402.67;1659608;85;21071;-70
2022/03/03 00:43:23;;;;;;;6.10;4.30;;;;;;;1.45;100.00;98395.66;1643390;86;21507;-70
2022/03/03 00:45:50;;;;;;;7.33;4.50;;;;;;;1.44;100.00;98394.00;1652425;85;21098;-70
2022/03/03 00:48:17;;;;;;;5.93;4.17;;;;;;;1.42;100.00;98390.66;1648589;85;21085;-70
2022/03/03 00:50:46;;;;;;;6.20;4.47;;;;;;;1.40;100.00;98383.30;1661087;85;21122;-70
2022/03/03 00:53:13;;;;;;;9.90;4.80;;;;;;;1.39;100.00;98386.46;1642126;86;21513;-70
2022/03/03 00:55:40;;;;;;;10.10;5.10;;;;;;;1.41;100.00;98387.64;1650839;85;21146;-70
2022/03/03 00:58:13;;;;;;;10.53;5.50;;;;;;;1.41;100.00;98384.98;1651520;85;21087;-70
2022/03/03 01:00:41;;;;;;;8.47;5.27;;;;;;;1.40;100.00;98381.96;1634327;87;21072;-71
2022/03/03 01:03:08;;;;;;;10.73;5.40;;;;;;;1.37;100.00;98383.12;1632061;87;21051;-70
2022/03/03 01:05:35;;;;;;;9.30;5.63;;;;;;;1.36;100.00;98383.27;1642766;86;21520;-70
2022/03/03 01:08:08;;;;;;;7.90;5.40;;;;;;;1.34;100.00;98382.09;1613178;87;21071;-71
2022/03/03 01:10:34;;;;;;;9.50;5.07;;;;;;;1.34;100.00;98378.09;1651681;86;21067;-70
2022/03/03 01:13:01;;;;;;;7.67;5.50;;;;;;;1.37;100.00;98378.30;1651464;86;21087;-70
2022/03/03 01:15:29;;;;;;;7.90;4.93;;;;;;;1.39;100.00;98368.33;1633089;87;21512;-70
2022/03/03 01:17:57;;;;;;;8.17;5.43;;;;;;;1.41;100.00;98369.83;1651613;85;21095;-70
2022/03/03 01:20:24;;;;;;;9.10;5.23;;;;;;;1.44;100.00;98366.03;1632944;87;21540;-69
2022/03/03 01:22:51;;;;;;;12.10;6.30;;;;;;;1.45;100.00;98371.69;1652445;87;21039;-71
2022/03/03 01:25:17;;;;;;;30.83;11.90;;;;;;;1.45;100.00;98358.38;1632924;87;21233;-69
2022/03/03 01:27:45;;;;;;;25.07;9.27;;;;;;;1.45;100.00;98357.90;1651705;87;21967;-70
2022/03/03 01:30:14;;;;;;;40.90;12.70;;;;;;;1.45;100.00;98347.72;1651597;85;21043;-70
2022/03/03 01:32:41;;;;;;;30.67;10.53;;;;;;;1.47;100.00;98348.39;1632888;87;21576;-70
2022/03/03 01:35:09;;;;;;;36.10;12.27;;;;;;;1.49;100.00;98347.77;1651484;87;21543;-71
2022/03/03 01:37:36;;;;;;;37.53;13.63;;;;;;;1.49;100.00;98347.77;1651809;87;21016;-69
2022/03/03 01:40:04;;;;;;;65.13;26.57;;;;;;;1.50;100.00;98346.77;1637270;86;21061;-70
2022/03/03 01:42:32;;;;;;;102.47;46.13;;;;;;;1.50;100.00;98345.42;1640461;86;21070;-70
2022/03/03 01:44:59;;;;;;;89.90;44.00;;;;;;;1.50;100.00;98341.43;1666612;86;21051;-70
2022/03/03 01:47:26;;;;;;;62.97;32.77;;;;;;;1.49;100.00;98339.78;1666478;86;21094;-71
2022/03/03 01:49:54;;;;;;;41.77;21.33;;;;;;;1.48;100.00;98338.09;1666669;85;21065;-70
2022/03/03 01:52:21;;;;;;;25.87;13.33;;;;;;;1.47;100.00;98339.93;1666829;86;21092;-70
2022/03/03 01:54:49;;;;;;;25.30;12.17;;;;;;;1.45;100.00;98339.25;1666543;86;21097;-71
2022/03/03 01:57:17;;;;;;;20.70;10.87;;;;;;;1.44;100.00;98343.40;1666769;86;21054;-70
2022/03/03 01:59:44;;;;;;;19.40;9.47;;;;;;;1.43;100.00;98339.05;1666461;86;21046;-70
2022/03/03 02:02:11;;;;;;;15.37;8.53;;;;;;;1.43;100.00;98334.55;1666717;86;21058;-70
2022/03/03 02:04:39;;;;;;;14.73;8.23;;;;;;;1.43;100.00;98337.21;1666646;86;21539;-70
2022/03/03 02:07:07;;;;;;;14.23;8.20;;;;;;;1.43;100.00;98335.88;1640123;86;21018;-70
2022/03/03 02:09:34;;;;;;;17.70;8.93;;;;;;;1.42;100.00;98334.23;1666646;86;21089;-70
2022/03/03 02:12:02;;;;;;;19.23;9.93;;;;;;;1.42;100.00;98334.73;1640473;86;21049;-71
2022/03/03 02:14:32;;;;;;;18.60;10.07;;;;;;;1.43;100.00;98329.73;1667028;86;21554;-70
2022/03/03 02:16:59;;;;;;;17.50;9.20;;;;;;;1.43;100.00;98333.72;1667001;86;21066;-71
2022/03/03 02:19:26;;;;;;;17.67;9.53;;;;;;;1.41;100.00;98331.20;1640484;86;21063;-70
2022/03/03 02:21:53;;;;;;;16.23;8.47;;;;;;;1.38;100.00;98328.02;1666975;86;21050;-69
2022/03/03 02:24:20;;;;;;;15.63;8.60;;;;;;;1.34;100.00;98334.16;1666879;86;21058;-70
2022/03/03 02:26:53;;;;;;;;;;;;;;;1.30;100.00;98329.63;1669550;86;21039;-69
2022/03/03 02:29:20;;;;;;;15.53;8.70;;;;;;;1.27;100.00;98327.27;1667000;86;20105;-70
2022/03/03 02:31:48;;;;;;;15.70;8.60;;;;;;;1.26;100.00;98336.27;1640361;86;21066;-70
2022/03/03 02:34:15;;;;;;;14.13;8.50;;;;;;;1.26;100.00;98330.94;1666694;86;21062;-70
2022/03/03 02:36:42;;;;;;;13.50;7.73;;;;;;;1.27;100.00;98329.09;1640411;86;21057;-70
2022/03/03 02:39:09;;;;;;;13.40;8.40;;;;;;;1.27;100.00;98327.77;1666924;86;21574;-70
2022/03/03 02:41:37;;;;;;;14.63;7.87;;;;;;;1.29;100.00;98318.66;1667088;86;21037;-71
2022/03/03 02:44:04;;;;;;;12.77;7.60;;;;;;;1.32;100.00;98311.66;1667192;86;21078;-70
2022/03/03 02:46:32;;;;;;;17.07;8.90;;;;;;;1.36;100.00;98308.20;1666983;86;21034;-70
2022/03/03 02:48:58;;;;;;;41.47;19.50;;;;;;;1.38;100.00;98307.57;1640080;86;21069;-70
2022/03/03 02:51:25;;;;;;;70.10;35.03;;;;;;;1.38;100.00;98302.25;1667089;86;21030;-69
2022/03/03 02:53:52;;;;;;;55.73;26.70;;;;;;;1.39;100.00;98293.75;1666785;86;21567;-71
2022/03/03 02:56:21;;;;;;;48.63;21.80;;;;;;;1.37;100.00;98296.56;1667143;86;21531;-71
2022/03/03 02:58:48;;;;;;;81.13;31.97;;;;;;;1.37;100.00;98292.57;1666960;86;21039;-69
2022/03/03 03:01:15;;;;;;;106.50;40.37;;;;;;;1.38;100.00;98292.92;1666883;86;21003;-70
2022/03/03 03:03:42;;;;;;;75.40;29.43;;;;;;;1.39;100.00;98291.91;1666820;86;21077;-71
2022/03/03 03:06:14;;;;;;;69.23;28.17;;;;;;;1.43;100.00;98291.93;1667005;86;21066;-70
2022/03/03 03:08:42;;;;;;;45.63;19.85;;;;;;;1.44;100.00;98286.13;1666747;86;21069;-70
2022/03/03 03:11:09;;;;;;;33.97;16.17;;;;;;;1.43;100.00;98281.28;1667097;86;20983;-70
2022/03/03 03:13:36;;;;;;;34.83;15.53;;;;;;;1.44;100.00;98280.80;1667133;86;21002;-71
2022/03/03 03:16:03;;;;;;;38.30;17.57;;;;;;;1.44;100.00;98277.64;1667353;86;21030;-70
2022/03/03 03:18:31;;;;;;;25.77;12.40;;;;;;;1.44;100.00;98280.30;1640423;86;21052;-70
2022/03/03 03:20:58;;;;;;;26.80;13.97;;;;;;;1.43;100.00;98281.28;1666870;86;21035;-71
2022/03/03 03:23:26;;;;;;;24.93;12.27;;;;;;;1.41;100.00;98278.45;1666362;86;21034;-69
2022/03/03 03:25:55;;;;;;;23.07;12.13;;;;;;;1.41;100.00;98267.80;1666877;86;21055;-71
2022/03/03 03:28:23;;;;;;;24.33;12.33;;;;;;;1.41;100.00;98271.28;1666483;86;21081;-70
2022/03/03 03:30:51;;;;;;;22.93;12.00;;;;;;;1.43;100.00;98269.80;1666537;86;21515;-70
2022/03/03 03:33:18;;;;;;;23.87;12.53;;;;;;;1.42;100.00;98260.16;1666613;86;21088;-70
2022/03/03 03:35:45;;;;;;;22.77;12.03;;;;;;;1.40;100.00;98262.97;1666551;86;21500;-71
2022/03/03 03:38:12;;;;;;;24.97;12.47;;;;;;;1.37;100.00;98255.28;1666640;86;21057;-70
2022/03/03 03:40:39;;;;;;;34.80;18.63;;;;;;;1.38;100.00;98252.12;1666798;86;21082;-71
2022/03/03 03:43:06;;;;;;;36.97;20.73;;;;;;;1.36;100.00;98248.78;1666386;85;21047;-70
2022/03/03 03:45:35;;;;;;;30.37;16.63;;;;;;;1.37;100.00;98246.47;1666507;86;21550;-71
2022/03/03 03:48:02;;;;;;;29.00;16.53;;;;;;;1.36;100.00;98236.30;1666599;86;21085;-70
2022/03/03 03:50:30;;;;;;;26.97;14.40;;;;;;;1.39;100.00;98237.83;1666537;86;21077;-70
2022/03/03 03:52:57;;;;;;;23.43;13.00;;;;;;;1.38;100.00;98230.81;1666560;86;21042;-70
2022/03/03 03:55:24;;;;;;;25.30;13.03;;;;;;;1.36;100.00;98223.48;1666524;86;21149;-70
2022/03/03 03:57:51;;;;;;;24.53;12.70;;;;;;;1.37;100.00;98219.33;1666692;86;21018;-71
2022/03/03 04:00:19;;;;;;;25.03;13.23;;;;;;;1.38;100.00;98221.49;1640189;86;21537;-70
2022/03/03 04:02:46;;;;;;;25.87;13.67;;;;;;;1.41;100.00;98216.69;1666613;86;21089;-70
2022/03/03 04:05:14;;;;;;;26.67;13.40;;;;;;;1.43;100.00;98208.03;1666583;86;21069;-70
2022/03/03 04:07:41;;;;;;;25.70;13.77;;;;;;;1.44;100.00;98196.91;1666840;86;21061;-70
2022/03/03 04:10:09;;;;;;;25.63;14.03;;;;;;;1.46;100.00;98197.07;1666528;86;21065;-70
2022/03/03 04:12:36;;;;;;;24.80;13.80;;;;;;;1.47;100.00;98192.58;1666811;85;21082;-70
2022/03/03 04:15:04;;;;;;;27.77;14.80;;;;;;;1.47;100.00;98192.09;1666712;86;21089;-71
2022/03/03 04:17:32;;;;;;;29.73;14.10;;;;;;;1.46;100.00;98193.08;1640466;86;21038;-70
2022/03/03 04:19:59;;;;;;;27.33;14.07;;;;;;;1.44;100.00;98179.59;1666524;86;21046;-71
2022/03/03 04:22:27;;;;;;;27.17;14.77;;;;;;;1.39;100.00;98181.89;1666879;86;21038;-71
2022/03/03 04:24:53;;;;;;;30.03;16.27;;;;;;;1.33;100.00;98177.53;1666706;86;21510;-70
2022/03/03 04:27:21;;;;;;;29.73;15.77;;;;;;;1.28;100.00;98174.51;1666937;86;21543;-70
2022/03/03 04:29:47;;;;;;;26.77;14.57;;;;;;;1.24;100.00;98180.30;1666544;86;21010;-71
2022/03/03 04:32:14;;;;;;;29.27;15.47;;;;;;;1.20;100.00;98177.11;1666741;86;21129;-70
2022/03/03 04:34:42;;;;;;;32.17;16.70;;;;;;;1.17;100.00;98169.94;1666717;86;21785;-70
2022/03/03 04:37:10;;;;;;;30.03;15.43;;;;;;;1.17;100.00;98169.94;1666738;86;21058;-70
2022/03/03 04:39:37;;;;;;;29.63;15.50;;;;;;;1.16;100.00;98177.09;1666702;86;21074;-70
2022/03/03 04:42:05;;;;;;;31.50;14.13;;;;;;;1.20;100.00;98170.95;1666735;86;21078;-69
2022/03/03 04:44:32;;;;;;;29.17;14.93;;;;;;;1.21;100.00;98172.64;1666649;86;21094;-70
2022/03/03 04:46:58;;;;;;;37.93;20.60;;;;;;;1.21;100.00;98165.48;1666584;86;21074;-71
2022/03/03 04:49:26;;;;;;;55.20;26.70;;;;;;;1.21;100.00;98164.66;1666630;86;21130;-71
2022/03/03 04:51:54;;;;;;;59.40;30.53;;;;;;;1.18;100.00;98162.30;1666677;86;21054;-70
2022/03/03 04:54:21;;;;;;;52.60;26.00;;;;;;;1.17;100.00;98156.63;1667146;86;21074;-71
2022/03/03 04:56:48;;;;;;;62.30;27.93;;;;;;;1.16;100.00;98156.30;1666549;86;21480;-71
2022/03/03 04:59:15;;;;;;;40.70;19.50;;;;;;;1.18;100.00;98157.80;1666737;86;21018;-70
2022/03/03 05:01:42;;;;;;;41.37;21.03;;;;;;;1.18;100.00;98152.98;1666273;86;21101;-70
2022/03/03 05:04:09;;;;;;;49.40;24.03;;;;;;;1.17;100.00;98152.16;1666549;86;21038;-70
2022/03/03 05:06:36;;;;;;;46.40;23.37;;;;;;;1.17;100.00;98150.83;1667024;86;21058;-69
2022/03/03 05:09:03;;;;;;;47.03;24.07;;;;;;;1.18;100.00;98147.66;1666828;86;21526;-69
2022/03/03 05:11:31;;;;;;;43.67;21.87;;;;;;;1.18;100.00;98139.16;1666738;86;21046;-70
2022/03/03 05:13:58;;;;;;;41.70;22.77;;;;;;;1.19;100.00;98135.52;1667033;86;21488;-71
2022/03/03 05:16:25;;;;;;;42.90;23.93;;;;;;;1.21;100.00;98131.38;1666619;86;21031;-70
2022/03/03 05:18:52;;;;;;;38.87;21.17;;;;;;;1.21;100.00;98126.05;1666765;86;21054;-71
2022/03/03 05:21:18;;;;;;;38.50;21.57;;;;;;;1.23;100.00;98132.05;1666652;86;21043;-69
2022/03/03 05:23:46;;;;;;;43.23;23.50;;;;;;;1.22;100.00;98129.89;1666327;86;21077;-71
2022/03/03 05:26:13;;;;;;;37.87;21.23;;;;;;;1.25;100.00;98132.21;1666839;86;21035;-70
2022/03/03 05:28:40;;;;;;;36.13;20.27;;;;;;;1.28;100.00;98122.58;1666585;86;21058;-71
2022/03/03 05:31:08;;;;;;;31.57;18.70;;;;;;;1.28;100.00;98119.09;1666320;86;21070;-69
2022/03/03 05:33:35;;;;;;;35.40;19.60;;;;;;;1.27;100.00;98123.56;1666363;86;21077;-71
2022/03/03 05:36:05;;;;;;;35.60;20.93;;;;;;;1.25;100.00;98121.56;1666731;86;21117;-71
2022/03/03 05:38:34;;;;;;;32.37;19.33;;;;;;;1.23;100.00;98124.06;1666839;85;21006;-70
2022/03/03 05:41:02;;;;;;;32.37;17.93;;;;;;;1.22;100.00;98115.72;1668050;85;21368;-71
2022/03/03 05:43:28;;;;;;;30.90;18.50;;;;;;;1.19;100.00;98110.70;1641497;86;21034;-71
2022/03/03 05:45:56;;;;;;;37.53;19.57;;;;;;;1.19;100.00;98103.58;1668059;86;21082;-71
2022/03/03 05:48:23;;;;;;;48.03;24.33;;;;;;;1.19;100.00;98106.23;1668204;85;21569;-70
2022/03/03 05:50:50;;;;;;;40.63;20.30;;;;;;;1.19;100.00;98107.57;1668081;86;21105;-71
2022/03/03 05:53:19;;;;;;;32.53;17.83;;;;;;;1.19;100.00;98103.58;1641783;86;21101;-70
2022/03/03 05:55:49;;;;;;;31.53;18.07;;;;;;;1.19;100.00;98097.39;1667945;85;21066;-72
2022/03/03 05:58:19;;;;;;;42.90;20.63;;;;;;;1.17;100.00;98099.39;1640598;87;21224;-70
2022/03/03 06:00:48;;;;;;;32.43;17.77;;;;;;;1.16;100.00;98103.06;1640679;87;21076;-71
2022/03/03 06:03:17;;;;;;;33.37;18.17;;;;;;;1.16;100.00;98101.73;1663257;86;21065;-69
2022/03/03 06:05:53;;;;;;;47.80;24.37;;;;;;;1.16;100.00;98100.40;1663211;86;21538;-70
2022/03/03 06:08:30;;;;;;;35.47;19.60;;;;;;;1.16;100.00;98095.90;1640746;87;21089;-73
2022/03/03 06:11:02;;;;;;;33.83;18.80;;;;;;;1.18;100.00;98085.09;1640372;87;21042;-71
2022/03/03 06:13:36;;;;;;;35.80;19.73;;;;;;;1.17;100.00;98087.41;1640610;87;21010;-70
2022/03/03 06:16:04;;;;;;;33.00;17.97;;;;;;;1.18;100.00;98086.42;1621237;88;21127;-71
2022/03/03 06:18:32;;;;;;;29.20;16.43;;;;;;;1.17;100.00;98079.42;1622000;88;21091;-70
2022/03/03 06:21:00;;;;;;;33.63;18.60;;;;;;;1.15;100.00;98072.92;1621959;87;21094;-70
2022/03/03 06:23:27;;;;;;;31.40;17.70;;;;;;;1.13;100.00;98073.11;1622017;88;21091;-69
2022/03/03 06:26:07;;;;;;;35.17;18.70;;;;;;;1.12;100.00;98074.09;1622160;88;21087;-73
2022/03/03 06:28:35;;;;;;;32.03;18.27;;;;;;;1.12;100.00;98074.59;1622327;88;21088;-71
2022/03/03 06:31:04;;;;;;;34.33;18.77;;;;;;;1.12;100.00;98072.75;1621912;88;21139;-71
2022/03/03 06:33:33;;;;;;;33.23;18.70;;;;;;;1.14;100.00;98068.61;1622096;88;21122;-70
2022/03/03 06:36:00;;;;;;;38.10;19.23;;;;;;;1.15;100.00;98056.95;1622096;88;21079;-70
2022/03/03 06:38:27;;;;;;;36.67;19.57;;;;;;;1.18;100.00;98051.81;1622242;87;21079;-71
2022/03/03 06:40:55;;;;;;;34.17;19.00;;;;;;;1.20;100.00;98039.17;1642182;87;21046;-70
2022/03/03 06:43:22;;;;;;;34.90;18.33;;;;;;;1.22;100.00;98032.71;1642021;87;21566;-70
2022/03/03 06:45:49;;;;;;;34.67;19.83;;;;;;;1.24;100.00;98033.38;1619997;87;21082;-71
2022/03/03 06:48:16;;;;;;;38.50;19.43;;;;;;;1.28;100.00;98032.56;1641751;87;21010;-71
2022/03/03 06:50:44;;;;;;;36.53;19.60;;;;;;;1.33;100.00;98027.59;1620972;87;21075;-70
2022/03/03 06:53:11;;;;;;;38.30;19.63;;;;;;;1.37;100.00;98019.60;1621035;87;21077;-71
2022/03/03 06:55:38;;;;;;;33.20;17.90;;;;;;;1.41;100.00;98014.27;1633517;87;21049;-70
2022/03/03 06:58:06;;;;;;;32.50;17.83;;;;;;;1.46;100.00;98003.15;1630151;87;21052;-71
2022/03/03 07:00:34;;;;;;;36.70;20.37;;;;;;;1.50;100.00;97997.82;1630273;88;21072;-71
2022/03/03 07:03:02;;;;;;;32.27;18.03;;;;;;;1.56;100.00;97992.33;1628733;87;21104;-70
2022/03/03 07:05:30;;;;;;;31.97;19.10;;;;;;;1.64;100.00;97989.18;1629389;88;21077;-70
2022/03/03 07:07:58;;;;;;;35.53;19.40;;;;;;;1.69;100.00;97981.53;1630160;88;21017;-70
2022/03/03 07:10:25;;;;;;;26.53;14.53;;;;;;;1.76;100.00;97979.05;1629737;88;21739;-71
2022/03/03 07:12:56;;;;;;;27.73;15.83;;;;;;;1.80;100.00;97972.89;1654728;85;21073;-70
2022/03/03 07:15:25;;;;;;;28.37;16.20;;;;;;;1.78;100.00;97971.72;1641996;85;21085;-71
2022/03/03 07:17:56;;;;;;;27.87;14.70;;;;;;;1.78;100.00;97968.23;1660632;85;21018;-71
2022/03/03 07:20:37;;;;;;;27.73;15.53;;;;;;;1.78;100.00;97967.72;1603578;86;21635;-70
2022/03/03 07:23:10;;;;;;;27.80;15.53;;;;;;;1.79;100.00;97961.41;1620080;86;21144;-71
2022/03/03 07:25:51;;;;;;;25.60;14.63;;;;;;;1.85;100.00;97946.06;1654574;85;21110;-72
2022/03/03 07:28:16;;;;;;;25.33;15.40;;;;;;;1.94;100.00;97935.41;1636119;85;21087;-70
2022/03/03 07:30:43;;;;;;;28.67;15.97;;;;;;;2.03;100.00;97939.22;1629194;86;21103;-71
2022/03/03 07:33:20;;;;;;;33.00;18.30;;;;;;;2.13;100.00;97933.73;1632894;85;21038;-72
2022/03/03 07:35:49;;;;;;;38.70;21.67;;;;;;;2.22;100.00;97922.55;1639105;85;21528;-69
2022/03/03 07:40:48;;;;;;;57.80;27.50;;;;;;;2.31;100.00;97902.03;1560641;90;21097;-70
2022/03/03 07:43:16;;;;;;;59.70;27.93;;;;;;;2.34;100.00;97893.19;1535756;92;21037;-70
2022/03/03 07:45:43;;;;;;;40.23;18.93;;;;;;;2.37;100.00;97891.48;1516120;91;21042;-69
2022/03/03 07:48:13;;;;;;;41.73;19.70;;;;;;;2.40;100.00;97891.66;1507693;93;21145;-70
2022/03/03 07:50:41;;;;;;;42.83;20.27;;;;;;;2.38;100.00;97893.16;1538138;90;21057;-70
2022/03/03 07:53:10;;;;;;;40.70;20.37;;;;;;;2.39;100.00;97891.31;1502323;93;21078;-70
2022/03/03 07:55:51;;;;;;;38.70;19.43;;;;;;;2.37;100.00;97891.48;1555912;89;21152;-69
2022/03/03 07:58:21;;;;;;;40.00;20.07;;;;;;;2.30;100.00;97889.69;1494478;93;21111;-70
2022/03/03 08:00:51;;;;;;;32.20;17.00;;;;;;;2.27;100.00;97881.55;1483738;94;21086;-69
2022/03/03 08:03:20;;;;;;;34.80;18.77;;;;;;;2.34;100.00;97880.33;1486464;94;21103;-70
2022/03/03 08:05:50;;;;;;;31.93;17.93;;;;;;;2.43;100.00;97873.48;1450221;98;21168;-70
2022/03/03 08:08:22;;;;;;;28.33;15.30;;;;;;;2.50;100.00;97870.11;1454019;98;21642;-70
2022/03/03 08:10:49;;;;;;;29.47;17.87;;;;;;;2.55;100.00;97864.61;1443137;97;21782;-70
2022/03/03 08:13:17;;;;;;;28.70;16.23;;;;;;;2.57;100.00;97871.11;1448359;97;21166;-70
2022/03/03 08:15:45;;;;;;;28.03;15.40;;;;;;;2.59;100.00;97866.42;1461817;96;21140;-70
2022/03/03 08:18:13;;;;;;;25.37;14.40;;;;;;;2.55;100.00;97875.76;1448658;95;21157;-70
2022/03/03 08:20:40;;;;;;;26.30;15.03;;;;;;;2.46;100.00;97874.95;1483227;94;21224;-69
2022/03/03 08:23:08;;;;;;;25.27;14.67;;;;;;;2.37;100.00;97888.82;1474546;94;21117;-69
2022/03/03 08:25:35;;;;;;;26.00;13.90;;;;;;;2.35;100.00;97888.16;1475160;96;21625;-70
2022/03/03 08:28:03;;;;;;;24.67;13.83;;;;;;;2.37;100.00;97891.48;1474752;95;21271;-69
2022/03/03 08:30:31;;;;;;;23.70;13.67;;;;;;;2.37;100.00;97881.33;1465054;96;21097;-71
2022/03/03 08:33:19;;;;;;;24.33;14.43;;;;;;;2.42;100.00;97882.98;1461908;97;21604;-70
2022/03/03 08:35:54;;;;;;;23.97;13.37;;;;;;;2.45;100.00;97874.64;1488508;93;21273;-70
2022/03/03 08:38:33;;;;;;;24.10;13.67;;;;;;;2.51;100.00;97869.94;1524992;90;21138;-70
2022/03/03 08:41:00;;;;;;;23.00;13.03;;;;;;;2.52;100.00;97875.61;1537269;90;21151;-72
2022/03/03 08:43:28;;;;;;;23.33;12.53;;;;;;;2.51;100.00;97865.94;1513690;90;21125;-69
2022/03/03 08:46:02;;;;;;;20.67;11.87;;;;;;;2.54;100.00;97870.11;1484798;94;21134;-68
2022/03/03 08:48:31;;;;;;;20.83;12.20;;;;;;;2.53;100.00;97869.77;1509390;92;21048;-71
2022/03/03 08:51:02;;;;;;;19.63;11.53;;;;;;;2.50;100.00;97871.44;1513385;92;21590;-71
2022/03/03 08:53:29;;;;;;;17.40;9.77;;;;;;;2.48;100.00;97874.31;1546761;91;21117;-70
2022/03/03 08:55:58;;;;;;;17.60;9.53;;;;;;;2.45;100.00;97879.47;1519961;90;21021;-68
2022/03/03 08:58:26;;;;;;;18.73;9.83;;;;;;;2.35;100.00;97886.83;1510423;90;21093;-69
2022/03/03 09:00:53;;;;;;;16.87;9.60;;;;;;;2.28;100.00;97898.70;1535657;90;21105;-71
2022/03/03 09:03:22;;;;;;;17.70;9.93;;;;;;;2.30;100.00;97901.17;1539776;91;21068;-70
2022/03/03 09:05:50;;;;;;;17.13;10.07;;;;;;;2.35;100.00;97900.16;1549000;92;21126;-71
2022/03/03 09:08:17;;;;;;;16.37;9.03;;;;;;;2.40;100.00;97912.49;1559151;89;21791;-71
2022/03/03 09:10:44;;;;;;;17.30;9.50;;;;;;;2.39;100.00;97916.18;1585584;88;21131;-70
2022/03/03 09:13:11;;;;;;;17.20;9.30;;;;;;;2.39;100.00;97918.84;1572791;89;21075;-70
2022/03/03 09:15:40;;;;;;;20.40;11.47;;;;;;;2.43;100.00;97908.16;1598781;88;21025;-64
2022/03/03 09:18:07;;;;;;;15.40;9.23;;;;;;;2.53;100.00;97916.45;1624785;87;21040;-70
2022/03/03 09:20:35;;;;;;;17.37;10.33;;;;;;;2.67;100.00;97917.06;1617526;87;21090;-71
2022/03/03 09:23:03;;;;;;;16.97;10.17;;;;;;;2.79;100.00;97920.20;1613740;88;21084;-70
2022/03/03 09:25:41;;;;;;;15.60;9.70;;;;;;;2.83;100.00;97932.19;1583373;89;21065;-70
2022/03/03 09:28:09;;;;;;;17.30;9.83;;;;;;;2.87;100.00;97930.00;1583218;89;21106;-70
2022/03/03 09:30:42;;;;;;;16.17;9.20;;;;;;;2.88;100.00;97931.17;1604053;89;21049;-71
2022/03/03 09:33:09;;;;;;;18.90;9.87;;;;;;;2.93;100.00;97934.66;1607990;89;21089;-70
2022/03/03 09:35:37;;;;;;;21.87;10.37;;;;;;;2.96;100.00;97937.81;1638409;86;21151;-70
2022/03/03 09:38:04;;;;;;;21.40;10.87;;;;;;;3.00;100.00;97947.12;1631460;87;21021;-72
2022/03/03 09:40:31;;;;;;;41.07;22.73;;;;;;;3.03;100.00;97948.13;1637430;86;21078;-70
2022/03/03 09:43:04;;;;;;;29.07;16.37;;;;;;;3.02;100.00;97946.95;1658156;85;21086;-70
2022/03/03 09:45:32;;;;;;;58.63;31.90;;;;;;;3.02;100.00;97934.44;1655758;87;21574;-70
2022/03/03 09:48:00;;;;;;;38.67;21.33;;;;;;;3.03;100.00;97936.11;1655810;87;21034;-69
2022/03/03 09:50:27;;;;;;;22.80;12.43;;;;;;;3.04;100.00;97936.94;1655670;87;21172;-71
2022/03/03 09:52:55;;;;;;;17.67;10.63;;;;;;;3.02;100.00;97942.95;1655866;87;21033;-71
2022/03/03 09:55:22;;;;;;;25.00;14.83;;;;;;;3.00;100.00;97944.45;1655971;87;21085;-70
2022/03/03 09:57:50;;;;;;;18.90;10.80;;;;;;;2.99;100.00;97939.29;1656816;87;21046;-69
2022/03/03 10:00:18;;;;;;;16.20;9.97;;;;;;;2.98;100.00;97947.81;1656206;87;21166;-70
2022/03/03 10:03:08;;;;;;;17.43;9.63;;;;;;;2.95;100.00;97945.99;1656737;87;21054;-71
2022/03/03 10:05:47;;;;;;;18.77;12.20;;;;;;;2.92;100.00;97950.34;1634222;87;21102;-70
2022/03/03 10:08:19;;;;;;;18.20;11.47;;;;;;;2.90;100.00;97954.51;1673299;86;21098;-71
2022/03/03 10:10:49;;;;;;;32.60;22.00;;;;;;;2.91;100.00;97948.69;1675302;86;21071;-71
2022/03/03 10:13:18;;;;;;;35.07;27.90;;;;;;;2.94;100.00;97948.32;1675730;86;21091;-69
2022/03/03 10:15:59;;;;;;;52.60;40.53;;;;;;;2.99;100.00;97952.16;1668059;86;21027;-69
2022/03/03 10:18:27;;;;;;;38.10;28.17;;;;;;;3.06;100.00;97946.11;1648805;87;21571;-71
2022/03/03 10:21:00;;;;;;;24.13;16.33;;;;;;;3.17;100.00;97946.56;1648358;87;21079;-70
2022/03/03 10:23:35;;;;;;;25.30;15.98;;;;;;;3.27;100.00;97941.49;1626601;87;21019;-70
2022/03/03 10:26:06;;;;;;;18.33;10.57;;;;;;;3.41;100.00;97941.55;1648475;87;21082;-72
2022/03/03 10:28:35;;;;;;;15.87;9.73;;;;;;;3.52;100.00;97938.98;1599970;88;21532;-71
2022/03/03 10:31:22;;;;;;;18.07;11.30;;;;;;;3.57;100.00;97939.28;1643384;87;21517;-70
2022/03/03 10:33:49;;;;;;;18.30;10.73;;;;;;;3.61;100.00;97935.75;1600337;88;21553;-70
2022/03/03 10:36:24;;;;;;;13.63;7.87;;;;;;;3.68;100.00;97924.67;1621323;88;21060;-70
2022/03/03 10:38:56;;;;;;;14.47;8.47;;;;;;;3.72;100.00;97923.80;1621410;88;21596;-69
2022/03/03 10:41:44;;;;;;;12.90;7.30;;;;;;;3.74;100.00;97914.61;1619679;88;21606;-70
2022/03/03 10:44:19;;;;;;;13.80;8.53;;;;;;;3.72;100.00;97917.12;1612897;88;21104;-71
2022/03/03 10:47:12;;;;;;;9.37;6.30;;;;;;;3.65;100.00;97910.34;1612587;88;21096;-70
2022/03/03 10:49:41;;;;;;;;;;;;;;;3.55;100.00;97903.89;1548022;92;21083;-69
2022/03/03 10:52:23;;;;;;;11.03;7.10;;;;;;;3.48;100.00;97900.79;1609323;89;20220;-70
2022/03/03 10:55:01;;;;;;;12.37;8.07;;;;;;;3.41;100.00;97908.67;1545146;92;21073;-70
2022/03/03 10:57:58;;;;;;;10.00;5.90;;;;;;;3.38;100.00;97905.02;1609996;89;21063;-71
2022/03/03 11:00:27;;;;;;;8.93;5.70;;;;;;;3.37;100.00;97891.34;1628463;88;21052;-69
2022/03/03 11:03:00;;;;;;;11.07;6.87;;;;;;;3.33;100.00;97884.20;1636238;88;21554;-70
2022/03/03 11:05:41;;;;;;;14.30;8.10;;;;;;;3.31;100.00;97874.68;1642528;86;21088;-70
2022/03/03 11:08:17;;;;;;;10.17;6.80;;;;;;;3.32;100.00;97875.02;1566765;91;21084;-70
2022/03/03 11:13:47;;;;;;;11.63;7.53;;;;;;;3.40;100.00;97880.31;1593044;87;21153;-71
2022/03/03 11:16:29;;;;;;;12.30;7.40;;;;;;;3.45;100.00;97873.91;1625864;88;21034;-69
2022/03/03 11:19:17;;;;;;;7.30;5.50;;;;;;;3.50;100.00;97874.72;1578418;88;21197;-70
2022/03/03 11:21:45;;;;;;;13.83;7.23;;;;;;;3.52;100.00;97864.16;1609059;88;21113;-69
2022/03/03 11:24:13;;;;;;;14.07;8.30;;;;;;;3.51;100.00;97862.52;1625588;87;21125;-70
2022/03/03 11:26:42;;;;;;;8.70;6.10;;;;;;;3.54;100.00;97863.98;1623627;85;21487;-70
2022/03/03 11:29:17;;;;;;;9.63;6.67;;;;;;;3.52;100.00;97862.83;1652690;85;21026;-70
2022/03/03 11:34:33;;;;;;;9.53;6.33;;;;;;;3.46;100.00;98076.48;1837632;77;22888;-77
2022/03/03 11:37:21;;;;;;;9.30;6.00;;;;;;;3.39;100.00;97858.09;1796740;79;21006;-69
2022/03/03 11:39:57;;;;;;;20.43;11.43;;;;;;;3.33;100.00;97853.95;1795604;79;21015;-71